sensor_id;sensor_type;location;lat;lon;timestamp;pressure;altitude;pressure_sealevel;temperature;humidity
14790;BME280;7486;51.010;10.366;2023-02-10T00:01:24;99783.13;;;-6.26;63.93
14790;BME280;7486;51.010;10.366;2023-02-10T00:03:52;100069.00;;;-4.26;63.62
14790;BME280;7486;51.010;10.366;2023-02-10T00:06:20;99764.94;;;-6.23;63.62
14790;BME280;7486;51.010;10.366;2023-02-10T00:08:51;99635.28;;;-6.87;63.41
14790;BME280;7486;51.010;10.366;2023-02-10T00:11:18;99600.59;;;-7.20;63.56
14790;BME280;7486;51.010;10.366;2023-02-10T00:13:45;99982.66;;;-4.81;63.76
14790;BME280;7486;51.010;10.366;2023-02-10T00:16:14;100076.31;;;-4.15;64.24
14790;BME280;7486;51.010;10.366;2023-02-10T00:18:41;99985.94;;;-4.77;64.25
14790;BME280;7486;51.010;10.366;2023-02-10T00:21:12;100058.09;;;-4.32;63.95
14790;BME280;7486;51.010;10.366;2023-02-10T00:23:39;100054.28;;;-4.44;64.27
14790;BME280;7486;51.010;10.366;2023-02-10T00:26:07;100010.34;;;-4.64;64.58
14790;BME280;7486;51.010;10.366;2023-02-10T00:28:36;100093.56;;;-4.16;64.32
14790;BME280;7486;51.010;10.366;2023-02-10T00:31:08;100026.44;;;-4.58;64.04
14790;BME280;7486;51.010;10.366;2023-02-10T00:33:35;100075.03;;;-4.25;64.19
14790;BME280;7486;51.010;10.366;2023-02-10T00:36:07;99998.59;;;-4.71;64.08
14790;BME280;7486;51.010;10.366;2023-02-10T00:38:34;100073.91;;;-4.38;64.57
14790;BME280;7486;51.010;10.366;2023-02-10T00:41:04;100101.06;;;-4.10;64.34
14790;BME280;7486;51.010;10.366;2023-02-10T00:43:32;100095.97;;;-4.11;64.29
14790;BME280;7486;51.010;10.366;2023-02-10T00:45:59;99995.03;;;-4.69;64.87
14790;BME280;7486;51.010;10.366;2023-02-10T00:48:26;100057.31;;;-4.34;64.88
14790;BME280;7486;51.010;10.366;2023-02-10T00:50:52;100071.47;;;-4.23;65.01
14790;BME280;7486;51.010;10.366;2023-02-10T00:53:22;100018.84;;;-4.81;64.95
14790;BME280;7486;51.010;10.366;2023-02-10T00:55:48;99476.28;;;-8.08;65.60
14790;BME280;7486;51.010;10.366;2023-02-10T00:58:15;99973.09;;;-4.99;65.27
14790;BME280;7486;51.010;10.366;2023-02-10T01:00:42;100042.09;;;-4.61;65.94
14790;BME280;7486;51.010;10.366;2023-02-10T01:03:09;100072.59;;;-4.28;65.95
14790;BME280;7486;51.010;10.366;2023-02-10T01:05:36;100098.34;;;-4.07;65.00
14790;BME280;7486;51.010;10.366;2023-02-10T01:08:02;100029.69;;;-4.53;64.89
14790;BME280;7486;51.010;10.366;2023-02-10T01:10:31;100080.78;;;-4.00;65.17
14790;BME280;7486;51.010;10.366;2023-02-10T01:12:58;100039.66;;;-4.06;64.72
14790;BME280;7486;51.010;10.366;2023-02-10T01:15:27;99972.66;;;-4.50;64.58
14790;BME280;7486;51.010;10.366;2023-02-10T01:17:54;100061.63;;;-3.77;64.60
14790;BME280;7486;51.010;10.366;2023-02-10T01:20:21;99836.53;;;-5.27;64.35
14790;BME280;7486;51.010;10.366;2023-02-10T01:22:49;99693.53;;;-6.21;64.76
14790;BME280;7486;51.010;10.366;2023-02-10T01:25:15;99887.34;;;-5.07;64.29
14790;BME280;7486;51.010;10.366;2023-02-10T01:27:42;100086.03;;;-4.02;64.18
14790;BME280;7486;51.010;10.366;2023-02-10T01:30:12;99410.81;;;-7.99;64.46
14790;BME280;7486;51.010;10.366;2023-02-10T01:32:39;99723.88;;;-6.27;64.29
14790;BME280;7486;51.010;10.366;2023-02-10T01:35:06;99728.38;;;-6.12;64.33
14790;BME280;7486;51.010;10.366;2023-02-10T01:37:33;99832.53;;;-5.34;63.94
14790;BME280;7486;51.010;10.366;2023-02-10T01:40:00;99441.06;;;-7.64;63.28
14790;BME280;7486;51.010;10.366;2023-02-10T01:42:27;99487.47;;;-7.87;64.98
14790;BME280;7486;51.010;10.366;2023-02-10T01:47:21;99935.31;;;-4.63;64.51
14790;BME280;7486;51.010;10.366;2023-02-10T01:49:49;99737.81;;;-5.91;64.12
14790;BME280;7486;51.010;10.366;2023-02-10T01:52:25;99780.03;;;-5.53;64.42
14790;BME280;7486;51.010;10.366;2023-02-10T01:55:18;99659.53;;;-6.10;63.97
14790;BME280;7486;51.010;10.366;2023-02-10T01:57:44;100053.63;;;-3.73;63.90
14790;BME280;7486;51.010;10.366;2023-02-10T02:00:12;99945.69;;;-4.25;63.26
14790;BME280;7486;51.010;10.366;2023-02-10T02:02:41;99925.94;;;-4.28;63.04
14790;BME280;7486;51.010;10.366;2023-02-10T02:05:39;100119.25;;;-3.01;62.88
14790;BME280;7486;51.010;10.366;2023-02-10T02:11:03;100042.25;;;-3.52;62.67
14790;BME280;7486;51.010;10.366;2023-02-10T02:16:36;100109.00;;;-3.21;63.37
14790;BME280;7486;51.010;10.366;2023-02-10T02:25:19;100036.44;;;-3.74;63.51
14790;BME280;7486;51.010;10.366;2023-02-10T02:28:18;100128.91;;;-3.21;64.38
14790;BME280;7486;51.010;10.366;2023-02-10T02:33:40;100044.09;;;-3.54;64.49
14790;BME280;7486;51.010;10.366;2023-02-10T02:36:13;100133.16;;;-3.02;64.17
14790;BME280;7486;51.010;10.366;2023-02-10T02:38:43;100075.97;;;-3.70;65.45
14790;BME280;7486;51.010;10.366;2023-02-10T02:41:10;100056.22;;;-3.73;65.52
14790;BME280;7486;51.010;10.366;2023-02-10T02:43:39;100053.78;;;-3.57;65.42
14790;BME280;7486;51.010;10.366;2023-02-10T02:49:34;100130.47;;;-3.00;65.06
14790;BME280;7486;51.010;10.366;2023-02-10T02:52:10;100134.00;;;-2.84;64.28
14790;BME280;7486;51.010;10.366;2023-02-10T02:54:47;100122.13;;;-2.88;63.72
14790;BME280;7486;51.010;10.366;2023-02-10T02:57:25;100129.72;;;-3.02;64.71
14790;BME280;7486;51.010;10.366;2023-02-10T03:00:03;100133.66;;;-3.12;64.93
14790;BME280;7486;51.010;10.366;2023-02-10T03:02:32;100149.38;;;-3.15;65.87
14790;BME280;7486;51.010;10.366;2023-02-10T03:04:59;100030.22;;;-3.88;66.99
14790;BME280;7486;51.010;10.366;2023-02-10T03:07:26;99842.34;;;-5.03;67.08
14790;BME280;7486;51.010;10.366;2023-02-10T03:09:53;99691.00;;;-6.22;68.08
14790;BME280;7486;51.010;10.366;2023-02-10T03:12:20;100009.94;;;-4.16;68.13
14790;BME280;7486;51.010;10.366;2023-02-10T03:14:47;99976.50;;;-4.39;68.35
14790;BME280;7486;51.010;10.366;2023-02-10T03:17:14;99877.97;;;-5.10;68.15
14790;BME280;7486;51.010;10.366;2023-02-10T03:19:40;100082.34;;;-3.77;68.64
14790;BME280;7486;51.010;10.366;2023-02-10T03:22:07;100065.97;;;-3.78;68.26
14790;BME280;7486;51.010;10.366;2023-02-10T03:24:34;100080.84;;;-3.83;68.80
14790;BME280;7486;51.010;10.366;2023-02-10T03:27:00;100091.50;;;-3.70;68.54
14790;BME280;7486;51.010;10.366;2023-02-10T03:29:27;100080.38;;;-3.72;68.35
14790;BME280;7486;51.010;10.366;2023-02-10T03:31:54;99768.09;;;-5.56;68.22
14790;BME280;7486;51.010;10.366;2023-02-10T03:34:20;100134.75;;;-3.35;68.82
14790;BME280;7486;51.010;10.366;2023-02-10T03:36:47;100039.28;;;-3.80;68.11
14790;BME280;7486;51.010;10.366;2023-02-10T03:39:14;100107.81;;;-3.50;68.03
14790;BME280;7486;51.010;10.366;2023-02-10T03:41:41;99986.28;;;-4.27;68.40
14790;BME280;7486;51.010;10.366;2023-02-10T03:44:07;99989.22;;;-4.35;68.73
14790;BME280;7486;51.010;10.366;2023-02-10T03:46:34;100057.09;;;-3.91;69.05
14790;BME280;7486;51.010;10.366;2023-02-10T03:49:01;100109.31;;;-3.46;68.27
14790;BME280;7486;51.010;10.366;2023-02-10T03:51:27;100121.19;;;-3.40;68.38
14790;BME280;7486;51.010;10.366;2023-02-10T03:53:54;100106.81;;;-3.47;67.89
14790;BME280;7486;51.010;10.366;2023-02-10T03:56:21;100126.28;;;-3.57;68.67
14790;BME280;7486;51.010;10.366;2023-02-10T03:58:48;100127.09;;;-3.38;68.38
14790;BME280;7486;51.010;10.366;2023-02-10T04:01:16;100163.56;;;-3.05;67.95
14790;BME280;7486;51.010;10.366;2023-02-10T04:03:44;100170.22;;;-3.18;67.91
14790;BME280;7486;51.010;10.366;2023-02-10T04:06:11;100173.28;;;-2.91;67.59
14790;BME280;7486;51.010;10.366;2023-02-10T04:08:39;100178.56;;;-2.76;66.96
14790;BME280;7486;51.010;10.366;2023-02-10T04:11:06;100187.19;;;-2.75;66.75
14790;BME280;7486;51.010;10.366;2023-02-10T04:13:32;100107.22;;;-3.19;66.90
14790;BME280;7486;51.010;10.366;2023-02-10T04:16:05;100108.81;;;-3.16;66.79
14790;BME280;7486;51.010;10.366;2023-02-10T04:18:32;99830.41;;;-5.06;66.73
14790;BME280;7486;51.010;10.366;2023-02-10T04:20:59;100154.66;;;-3.18;67.76
14790;BME280;7486;51.010;10.366;2023-02-10T04:23:26;100179.28;;;-2.91;67.45
14790;BME280;7486;51.010;10.366;2023-02-10T04:25:53;100188.84;;;-2.91;67.09
14790;BME280;7486;51.010;10.366;2023-02-10T04:28:19;100090.88;;;-3.75;67.54
14790;BME280;7486;51.010;10.366;2023-02-10T04:30:53;100183.53;;;-3.07;67.95
14790;BME280;7486;51.010;10.366;2023-02-10T04:33:21;100183.78;;;-2.95;67.07
14790;BME280;7486;51.010;10.366;2023-02-10T04:35:48;100165.69;;;-3.13;68.08
14790;BME280;7486;51.010;10.366;2023-02-10T04:38:16;100118.13;;;-3.31;67.53
14790;BME280;7486;51.010;10.366;2023-02-10T04:40:42;100082.47;;;-3.62;67.49
14790;BME280;7486;51.010;10.366;2023-02-10T04:43:10;100191.28;;;-2.88;67.50
14790;BME280;7486;51.010;10.366;2023-02-10T04:45:37;100190.78;;;-2.78;67.73
14790;BME280;7486;51.010;10.366;2023-02-10T04:48:04;100179.31;;;-2.74;67.22
14790;BME280;7486;51.010;10.366;2023-02-10T04:50:32;100141.69;;;-3.00;67.43
14790;BME280;7486;51.010;10.366;2023-02-10T04:52:59;100095.84;;;-3.16;66.85
14790;BME280;7486;51.010;10.366;2023-02-10T04:55:25;99837.47;;;-4.72;66.74
14790;BME280;7486;51.010;10.366;2023-02-10T04:57:52;100167.03;;;-2.70;67.25
14790;BME280;7486;51.010;10.366;2023-02-10T05:00:19;100140.50;;;-3.11;67.50
14790;BME280;7486;51.010;10.366;2023-02-10T05:02:46;100160.75;;;-3.01;67.65
14790;BME280;7486;51.010;10.366;2023-02-10T05:08:43;100161.59;;;-3.00;68.16
14790;BME280;7486;51.010;10.366;2023-02-10T05:11:32;100174.25;;;-2.94;68.36
14790;BME280;7486;51.010;10.366;2023-02-10T05:14:00;100107.88;;;-3.32;68.31
14790;BME280;7486;51.010;10.366;2023-02-10T05:16:26;100124.34;;;-3.16;68.04
14790;BME280;7486;51.010;10.366;2023-02-10T05:18:54;100171.00;;;-2.80;68.29
14790;BME280;7486;51.010;10.366;2023-02-10T05:21:22;100182.94;;;-2.59;67.81
14790;BME280;7486;51.010;10.366;2023-02-10T05:23:58;100149.09;;;-2.92;67.50
14790;BME280;7486;51.010;10.366;2023-02-10T05:26:24;100146.00;;;-2.81;68.01
14790;BME280;7486;51.010;10.366;2023-02-10T05:28:51;100176.91;;;-2.60;67.55
14790;BME280;7486;51.010;10.366;2023-02-10T05:31:18;99908.75;;;-4.29;67.44
14790;BME280;7486;51.010;10.366;2023-02-10T05:33:45;100149.47;;;-3.00;67.98
14790;BME280;7486;51.010;10.366;2023-02-10T05:36:11;100106.19;;;-3.52;68.48
14790;BME280;7486;51.010;10.366;2023-02-10T05:38:38;99921.59;;;-4.65;69.16
14790;BME280;7486;51.010;10.366;2023-02-10T05:41:07;100146.00;;;-3.17;68.81
14790;BME280;7486;51.010;10.366;2023-02-10T05:43:37;99926.47;;;-4.38;68.36
14790;BME280;7486;51.010;10.366;2023-02-10T05:46:05;100166.78;;;-3.00;68.68
14790;BME280;7486;51.010;10.366;2023-02-10T05:48:32;100190.69;;;-2.76;68.45
14790;BME280;7486;51.010;10.366;2023-02-10T05:50:59;100200.97;;;-2.92;68.33
14790;BME280;7486;51.010;10.366;2023-02-10T05:53:30;99695.06;;;-5.96;68.30
14790;BME280;7486;51.010;10.366;2023-02-10T05:55:59;99557.09;;;-6.45;67.99
14790;BME280;7486;51.010;10.366;2023-02-10T05:58:29;99974.19;;;-4.08;67.73
14790;BME280;7486;51.010;10.366;2023-02-10T06:00:56;100111.16;;;-3.48;68.48
14790;BME280;7486;51.010;10.366;2023-02-10T06:03:23;100208.34;;;-3.02;69.60
14790;BME280;7486;51.010;10.366;2023-02-10T06:05:50;100213.19;;;-2.77;69.13
14790;BME280;7486;51.010;10.366;2023-02-10T06:08:17;100095.72;;;-3.32;69.54
14790;BME280;7486;51.010;10.366;2023-02-10T06:10:44;100208.44;;;-2.67;69.07
14790;BME280;7486;51.010;10.366;2023-02-10T06:13:11;100148.78;;;-3.03;68.19
14790;BME280;7486;51.010;10.366;2023-02-10T06:15:37;100157.81;;;-2.76;68.08
14790;BME280;7486;51.010;10.366;2023-02-10T06:18:04;100098.13;;;-3.10;67.71
14790;BME280;7486;51.010;10.366;2023-02-10T06:20:31;100159.78;;;-2.64;67.58
14790;BME280;7486;51.010;10.366;2023-02-10T06:22:57;100105.34;;;-2.98;67.56
14790;BME280;7486;51.010;10.366;2023-02-10T06:25:24;100204.84;;;-2.30;67.19
14790;BME280;7486;51.010;10.366;2023-02-10T06:27:51;99806.75;;;-4.59;66.66
14790;BME280;7486;51.010;10.366;2023-02-10T06:30:18;100200.50;;;-2.47;67.46
14790;BME280;7486;51.010;10.366;2023-02-10T06:32:44;100157.13;;;-2.79;67.68
14790;BME280;7486;51.010;10.366;2023-02-10T06:35:11;100103.94;;;-3.41;67.95
14790;BME280;7486;51.010;10.366;2023-02-10T06:37:39;100233.53;;;-2.68;68.48
14790;BME280;7486;51.010;10.366;2023-02-10T06:40:06;100155.34;;;-2.96;67.96
14790;BME280;7486;51.010;10.366;2023-02-10T06:42:33;100224.56;;;-2.43;68.08
14790;BME280;7486;51.010;10.366;2023-02-10T06:45:00;100239.19;;;-2.42;67.76
14790;BME280;7486;51.010;10.366;2023-02-10T06:47:27;100179.03;;;-2.85;67.69
14790;BME280;7486;51.010;10.366;2023-02-10T06:49:55;100223.78;;;-2.46;67.99
14790;BME280;7486;51.010;10.366;2023-02-10T06:52:21;100088.44;;;-3.42;67.93
14790;BME280;7486;51.010;10.366;2023-02-10T06:54:48;99878.13;;;-4.94;68.31
14790;BME280;7486;51.010;10.366;2023-02-10T06:57:15;100168.91;;;-3.27;69.51
14790;BME280;7486;51.010;10.366;2023-02-10T06:59:41;100139.84;;;-3.52;69.72
14790;BME280;7486;51.010;10.366;2023-02-10T07:02:11;100233.72;;;-2.72;69.42
14790;BME280;7486;51.010;10.366;2023-02-10T07:04:39;100136.63;;;-3.38;69.50
14790;BME280;7486;51.010;10.366;2023-02-10T07:07:05;100240.81;;;-2.76;69.28
14790;BME280;7486;51.010;10.366;2023-02-10T07:09:32;100185.75;;;-3.00;68.94
14790;BME280;7486;51.010;10.366;2023-02-10T07:11:59;100225.25;;;-2.76;68.44
14790;BME280;7486;51.010;10.366;2023-02-10T07:14:26;100153.38;;;-3.27;68.94
14790;BME280;7486;51.010;10.366;2023-02-10T07:16:52;100219.56;;;-2.84;68.54
14790;BME280;7486;51.010;10.366;2023-02-10T07:19:19;100203.13;;;-2.83;68.42
14790;BME280;7486;51.010;10.366;2023-02-10T07:21:46;100164.78;;;-3.12;68.72
14790;BME280;7486;51.010;10.366;2023-02-10T07:24:12;99907.91;;;-4.67;68.34
14790;BME280;7486;51.010;10.366;2023-02-10T07:26:39;100153.13;;;-3.04;68.45
14790;BME280;7486;51.010;10.366;2023-02-10T07:29:06;100179.41;;;-2.75;68.27
14790;BME280;7486;51.010;10.366;2023-02-10T07:31:32;100106.09;;;-3.32;68.10
14790;BME280;7486;51.010;10.366;2023-02-10T07:33:59;100208.31;;;-2.83;68.83
14790;BME280;7486;51.010;10.366;2023-02-10T07:36:26;100218.63;;;-2.81;69.29
14790;BME280;7486;51.010;10.366;2023-02-10T07:38:54;100232.63;;;-2.50;68.83
14790;BME280;7486;51.010;10.366;2023-02-10T07:41:20;100248.44;;;-2.37;68.47
14790;BME280;7486;51.010;10.366;2023-02-10T07:43:47;100127.16;;;-2.85;68.12
14790;BME280;7486;51.010;10.366;2023-02-10T07:46:16;100260.13;;;-1.94;67.68
14790;BME280;7486;51.010;10.366;2023-02-10T07:48:43;99923.84;;;-4.20;67.19
14790;BME280;7486;51.010;10.366;2023-02-10T07:51:09;100065.47;;;-3.31;67.87
14790;BME280;7486;51.010;10.366;2023-02-10T07:53:36;100248.69;;;-2.24;67.75
14790;BME280;7486;51.010;10.366;2023-02-10T07:56:04;100175.66;;;-2.70;67.22
14790;BME280;7486;51.010;10.366;2023-02-10T07:58:31;100222.72;;;-2.41;67.64
14790;BME280;7486;51.010;10.366;2023-02-10T08:00:57;100201.56;;;-2.87;68.44
14790;BME280;7486;51.010;10.366;2023-02-10T08:03:24;100256.81;;;-2.49;69.34
14790;BME280;7486;51.010;10.366;2023-02-10T08:05:50;100267.06;;;-2.29;68.46
14790;BME280;7486;51.010;10.366;2023-02-10T08:08:17;100223.94;;;-2.49;67.88
14790;BME280;7486;51.010;10.366;2023-02-10T08:10:44;100237.22;;;-2.20;67.62
14790;BME280;7486;51.010;10.366;2023-02-10T08:13:11;100270.97;;;-1.86;67.06
14790;BME280;7486;51.010;10.366;2023-02-10T08:15:38;100215.41;;;-2.33;67.04
14790;BME280;7486;51.010;10.366;2023-02-10T08:18:05;100258.44;;;-2.12;68.19
14790;BME280;7486;51.010;10.366;2023-02-10T08:20:31;100260.34;;;-2.16;67.71
14790;BME280;7486;51.010;10.366;2023-02-10T08:22:58;100140.28;;;-2.71;67.69
14790;BME280;7486;51.010;10.366;2023-02-10T08:25:25;100142.31;;;-2.77;67.58
14790;BME280;7486;51.010;10.366;2023-02-10T08:27:53;100304.75;;;-1.86;67.67
14790;BME280;7486;51.010;10.366;2023-02-10T08:30:19;100264.09;;;-2.21;68.72
14790;BME280;7486;51.010;10.366;2023-02-10T08:32:46;100298.16;;;-2.27;69.56
14790;BME280;7486;51.010;10.366;2023-02-10T08:35:15;99984.38;;;-3.86;69.13
14790;BME280;7486;51.010;10.366;2023-02-10T08:37:42;100308.03;;;-1.82;68.91
14790;BME280;7486;51.010;10.366;2023-02-10T08:40:09;100150.34;;;-2.65;68.21
14790;BME280;7486;51.010;10.366;2023-02-10T08:42:36;100183.03;;;-2.26;67.93
14790;BME280;7486;51.010;10.366;2023-02-10T08:45:03;100297.78;;;-1.68;67.89
14790;BME280;7486;51.010;10.366;2023-02-10T08:47:29;100286.94;;;-1.76;68.13
14790;BME280;7486;51.010;10.366;2023-02-10T08:49:56;100317.88;;;-1.55;67.43
14790;BME280;7486;51.010;10.366;2023-02-10T08:52:23;100227.06;;;-2.08;67.64
14790;BME280;7486;51.010;10.366;2023-02-10T08:54:50;100251.34;;;-1.92;67.29
14790;BME280;7486;51.010;10.366;2023-02-10T08:57:17;100258.44;;;-2.12;68.22
14790;BME280;7486;51.010;10.366;2023-02-10T08:59:44;100247.31;;;-2.14;68.96
14790;BME280;7486;51.010;10.366;2023-02-10T09:02:12;100316.78;;;-1.85;69.75
14790;BME280;7486;51.010;10.366;2023-02-10T09:04:39;100263.25;;;-2.22;70.09
14790;BME280;7486;51.010;10.366;2023-02-10T09:07:06;99986.91;;;-3.85;69.73
14790;BME280;7486;51.010;10.366;2023-02-10T09:09:38;100280.91;;;-2.11;70.68
14790;BME280;7486;51.010;10.366;2023-02-10T09:12:05;100278.41;;;-2.13;71.22
14790;BME280;7486;51.010;10.366;2023-02-10T09:14:32;100280.06;;;-2.12;71.20
14790;BME280;7486;51.010;10.366;2023-02-10T09:16:59;100165.75;;;-2.79;71.54
14790;BME280;7486;51.010;10.366;2023-02-10T09:19:26;100294.50;;;-2.06;71.57
14790;BME280;7486;51.010;10.366;2023-02-10T09:21:53;100268.13;;;-2.16;71.66
14790;BME280;7486;51.010;10.366;2023-02-10T09:24:19;100306.13;;;-1.79;71.91
14790;BME280;7486;51.010;10.366;2023-02-10T09:26:46;100323.34;;;-1.61;71.53
14790;BME280;7486;51.010;10.366;2023-02-10T09:29:13;100300.00;;;-1.78;71.55
14790;BME280;7486;51.010;10.366;2023-02-10T09:31:40;100293.03;;;-1.95;72.15
14790;BME280;7486;51.010;10.366;2023-02-10T09:34:07;100328.44;;;-1.75;72.82
14790;BME280;7486;51.010;10.366;2023-02-10T09:36:34;100261.81;;;-2.27;73.94
14790;BME280;7486;51.010;10.366;2023-02-10T09:39:00;100316.41;;;-2.12;74.18
14790;BME280;7486;51.010;10.366;2023-02-10T09:44:22;100354.16;;;-1.70;74.22
14790;BME280;7486;51.010;10.366;2023-02-10T09:52:32;100328.28;;;-1.89;74.55
14790;BME280;7486;51.010;10.366;2023-02-10T09:55:00;100234.38;;;-2.33;74.87
14790;BME280;7486;51.010;10.366;2023-02-10T09:57:37;100355.38;;;-1.43;74.36
14790;BME280;7486;51.010;10.366;2023-02-10T10:00:13;100323.13;;;-1.39;73.59
14790;BME280;7486;51.010;10.366;2023-02-10T10:02:50;100350.13;;;-1.09;72.66
14790;BME280;7486;51.010;10.366;2023-02-10T10:05:30;100325.00;;;-1.25;72.85
14790;BME280;7486;51.010;10.366;2023-02-10T10:08:02;100308.47;;;-1.57;73.23
14790;BME280;7486;51.010;10.366;2023-02-10T10:10:42;100287.00;;;-1.78;74.32
14790;BME280;7486;51.010;10.366;2023-02-10T10:13:18;100347.59;;;-1.43;74.70
14790;BME280;7486;51.010;10.366;2023-02-10T10:18:39;100301.47;;;-1.39;73.45
14790;BME280;7486;51.010;10.366;2023-02-10T10:21:19;100361.38;;;-0.93;73.39
14790;BME280;7486;51.010;10.366;2023-02-10T10:24:08;100357.41;;;-0.67;72.96
14790;BME280;7486;51.010;10.366;2023-02-10T10:26:53;100345.72;;;-0.44;71.60
14790;BME280;7486;51.010;10.366;2023-02-10T10:32:14;100277.16;;;-0.59;71.37
14790;BME280;7486;51.010;10.366;2023-02-10T10:34:48;100339.03;;;-0.32;71.28
14790;BME280;7486;51.010;10.366;2023-02-10T10:37:18;100271.69;;;-0.85;70.66
14790;BME280;7486;51.010;10.366;2023-02-10T10:39:51;100268.66;;;-0.78;70.68
14790;BME280;7486;51.010;10.366;2023-02-10T10:42:23;100319.78;;;-0.30;71.02
14790;BME280;7486;51.010;10.366;2023-02-10T10:44:57;100323.16;;;-0.44;70.71
14790;BME280;7486;51.010;10.366;2023-02-10T10:50:02;100318.50;;;-0.07;69.14
14790;BME280;7486;51.010;10.366;2023-02-10T10:52:34;100237.44;;;-0.62;69.58
14790;BME280;7486;51.010;10.366;2023-02-10T10:55:46;100312.13;;;0.13;69.61
14790;BME280;7486;51.010;10.366;2023-02-10T10:57:55;100269.28;;;-0.27;69.21
14790;BME280;7486;51.010;10.366;2023-02-10T11:00:25;100237.34;;;-0.15;68.76
14790;BME280;7486;51.010;10.366;2023-02-10T11:03:00;100159.19;;;-0.59;68.65
14790;BME280;7486;51.010;10.366;2023-02-10T11:05:35;100189.09;;;-0.36;68.48
14790;BME280;7486;51.010;10.366;2023-02-10T11:08:05;100293.22;;;0.53;68.49
14790;BME280;7486;51.010;10.366;2023-02-10T11:10:51;100232.25;;;-0.03;67.84
14790;BME280;7486;51.010;10.366;2023-02-10T11:13:22;100286.94;;;0.41;68.68
14790;BME280;7486;51.010;10.366;2023-02-10T11:15:59;100284.91;;;0.46;67.85
14790;BME280;7486;51.010;10.366;2023-02-10T11:18:28;100095.19;;;-0.77;67.52
14790;BME280;7486;51.010;10.366;2023-02-10T11:20:58;100283.56;;;0.25;68.64
14790;BME280;7486;51.010;10.366;2023-02-10T11:23:26;100235.09;;;0.23;67.56
14790;BME280;7486;51.010;10.366;2023-02-10T11:28:26;100133.06;;;0.00;66.34
14790;BME280;7486;51.010;10.366;2023-02-10T11:31:05;100269.66;;;0.97;66.38
14790;BME280;7486;51.010;10.366;2023-02-10T11:33:34;100276.09;;;1.05;65.74
14790;BME280;7486;51.010;10.366;2023-02-10T11:36:05;100272.06;;;1.00;65.61
14790;BME280;7486;51.010;10.366;2023-02-10T11:38:32;100231.34;;;0.97;65.59
14790;BME280;7486;51.010;10.366;2023-02-10T11:41:02;100221.13;;;0.94;66.16
14790;BME280;7486;51.010;10.366;2023-02-10T11:43:35;100228.31;;;1.18;66.22
14790;BME280;7486;51.010;10.366;2023-02-10T11:46:04;100201.50;;;1.42;63.98
14790;BME280;7486;51.010;10.366;2023-02-10T11:48:32;100264.31;;;1.53;64.93
14790;BME280;7486;51.010;10.366;2023-02-10T11:51:16;100165.88;;;0.88;64.59
14790;BME280;7486;51.010;10.366;2023-02-10T11:53:44;100199.41;;;0.94;64.53
14790;BME280;7486;51.010;10.366;2023-02-10T11:56:37;100265.44;;;1.49;64.77
14790;BME280;7486;51.010;10.366;2023-02-10T11:59:31;100216.03;;;1.20;64.00
14790;BME280;7486;51.010;10.366;2023-02-10T12:02:17;100200.00;;;1.11;63.99
14790;BME280;7486;51.010;10.366;2023-02-10T12:05:03;100192.13;;;0.99;64.38
14790;BME280;7486;51.010;10.366;2023-02-10T12:07:46;100265.66;;;1.46;64.89
14790;BME280;7486;51.010;10.366;2023-02-10T12:10:31;100255.69;;;1.39;64.16
14790;BME280;7486;51.010;10.366;2023-02-10T12:13:05;100123.50;;;0.70;64.04
14790;BME280;7486;51.010;10.366;2023-02-10T12:31:38;100257.69;;;1.48;64.09
14790;BME280;7486;51.010;10.366;2023-02-10T12:45:51;100174.56;;;1.15;64.32
14790;BME280;7486;51.010;10.366;2023-02-10T12:53:55;100217.06;;;1.83;63.80
14790;BME280;7486;51.010;10.366;2023-02-10T12:56:38;100255.34;;;2.09;63.05
14790;BME280;7486;51.010;10.366;2023-02-10T12:59:15;100240.47;;;1.85;62.92
14790;BME280;7486;51.010;10.366;2023-02-10T13:01:59;100216.50;;;1.78;63.00
14790;BME280;7486;51.010;10.366;2023-02-10T13:04:28;100238.53;;;2.26;62.57
14790;BME280;7486;51.010;10.366;2023-02-10T13:07:42;100232.34;;;2.02;63.84
14790;BME280;7486;51.010;10.366;2023-02-10T13:12:50;100185.41;;;1.88;62.22
14790;BME280;7486;51.010;10.366;2023-02-10T13:15:25;100225.94;;;1.93;62.42
14790;BME280;7486;51.010;10.366;2023-02-10T13:17:52;100138.47;;;1.34;62.75
14790;BME280;7486;51.010;10.366;2023-02-10T13:20:37;100137.97;;;1.42;62.85
14790;BME280;7486;51.010;10.366;2023-02-10T13:34:03;100225.88;;;1.95;62.07
14790;BME280;7486;51.010;10.366;2023-02-10T13:36:34;100179.50;;;1.72;61.56
14790;BME280;7486;51.010;10.366;2023-02-10T13:39:18;100150.53;;;1.49;61.81
14790;BME280;7486;51.010;10.366;2023-02-10T13:41:48;100223.75;;;1.87;62.40
14790;BME280;7486;51.010;10.366;2023-02-10T13:44:30;100209.47;;;1.53;62.25
14790;BME280;7486;51.010;10.366;2023-02-10T13:50:15;100171.75;;;1.18;62.34
14790;BME280;7486;51.010;10.366;2023-02-10T13:53:23;100221.19;;;1.60;62.89
14790;BME280;7486;51.010;10.366;2023-02-10T14:01:42;100213.81;;;1.40;62.55
14790;BME280;7486;51.010;10.366;2023-02-10T14:06:50;100162.97;;;1.19;62.39
14790;BME280;7486;51.010;10.366;2023-02-10T14:12:01;100221.22;;;1.73;62.01
14790;BME280;7486;51.010;10.366;2023-02-10T14:14:38;100231.13;;;1.68;62.71
14790;BME280;7486;51.010;10.366;2023-02-10T14:17:17;100226.56;;;1.45;62.75
14790;BME280;7486;51.010;10.366;2023-02-10T14:19:47;100225.56;;;1.06;64.72
14790;BME280;7486;51.010;10.366;2023-02-10T14:22:35;100150.16;;;0.61;64.52
14790;BME280;7486;51.010;10.366;2023-02-10T14:25:31;100113.38;;;0.51;64.52
14790;BME280;7486;51.010;10.366;2023-02-10T14:27:59;100072.53;;;0.38;64.12
14790;BME280;7486;51.010;10.366;2023-02-10T14:30:48;100203.16;;;1.43;63.56
14790;BME280;7486;51.010;10.366;2023-02-10T14:33:23;100198.31;;;1.37;63.44
14790;BME280;7486;51.010;10.366;2023-02-10T14:35:53;100191.97;;;1.41;63.46
14790;BME280;7486;51.010;10.366;2023-02-10T14:38:30;100172.28;;;0.96;63.09
14790;BME280;7486;51.010;10.366;2023-02-10T14:40:58;100189.81;;;0.80;63.74
14790;BME280;7486;51.010;10.366;2023-02-10T14:43:40;100152.97;;;0.44;64.88
14790;BME280;7486;51.010;10.366;2023-02-10T14:46:11;100110.25;;;-0.10;65.44
14790;BME280;7486;51.010;10.366;2023-02-10T14:48:44;100106.91;;;-0.12;65.71
14790;BME280;7486;51.010;10.366;2023-02-10T14:51:24;100190.66;;;0.52;65.49
14790;BME280;7486;51.010;10.366;2023-02-10T14:53:52;100071.28;;;-0.12;65.30